sensor_id;sensor_type;location;lat;lon;timestamp;P1;durP1;ratioP1;P2;durP2;ratioP2
26484;SDS011;18083;50.560;7.262;2023-04-19T00:00:56;4.72;;;3.22;;
26484;SDS011;18083;50.560;7.262;2023-04-19T00:03:26;7.40;;;3.92;;
26484;SDS011;18083;50.560;7.262;2023-04-19T00:05:53;4.87;;;3.77;;
26484;SDS011;18083;50.560;7.262;2023-04-19T00:08:22;5.05;;;4.10;;
26484;SDS011;18083;50.560;7.262;2023-04-19T00:10:49;7.67;;;4.00;;
26484;SDS011;18083;50.560;7.262;2023-04-19T00:13:16;4.45;;;3.62;;
26484;SDS011;18083;50.560;7.262;2023-04-19T00:15:44;6.08;;;4.28;;
26484;SDS011;18083;50.560;7.262;2023-04-19T00:18:11;6.33;;;4.03;;
26484;SDS011;18083;50.560;7.262;2023-04-19T00:20:38;5.70;;;4.00;;
26484;SDS011;18083;50.560;7.262;2023-04-19T00:23:06;7.22;;;4.90;;
26484;SDS011;18083;50.560;7.262;2023-04-19T00:25:33;4.57;;;4.07;;
26484;SDS011;18083;50.560;7.262;2023-04-19T00:28:00;6.03;;;4.08;;
26484;SDS011;18083;50.560;7.262;2023-04-19T00:30:28;6.35;;;4.28;;
26484;SDS011;18083;50.560;7.262;2023-04-19T00:32:55;6.03;;;4.75;;
26484;SDS011;18083;50.560;7.262;2023-04-19T00:35:22;5.35;;;4.00;;
26484;SDS011;18083;50.560;7.262;2023-04-19T00:37:49;4.25;;;3.85;;
26484;SDS011;18083;50.560;7.262;2023-04-19T00:40:16;4.30;;;3.27;;
26484;SDS011;18083;50.560;7.262;2023-04-19T00:42:44;7.50;;;3.98;;
26484;SDS011;18083;50.560;7.262;2023-04-19T00:45:11;4.50;;;4.10;;
26484;SDS011;18083;50.560;7.262;2023-04-19T00:47:38;5.35;;;4.37;;
26484;SDS011;18083;50.560;7.262;2023-04-19T00:50:06;6.55;;;4.25;;
26484;SDS011;18083;50.560;7.262;2023-04-19T00:52:33;5.90;;;4.25;;
26484;SDS011;18083;50.560;7.262;2023-04-19T00:55:01;5.40;;;4.90;;
26484;SDS011;18083;50.560;7.262;2023-04-19T00:57:30;6.05;;;4.25;;
26484;SDS011;18083;50.560;7.262;2023-04-19T00:59:57;4.00;;;3.60;;
26484;SDS011;18083;50.560;7.262;2023-04-19T01:02:25;5.67;;;3.70;;
26484;SDS011;18083;50.560;7.262;2023-04-19T01:04:53;4.42;;;3.87;;
26484;SDS011;18083;50.560;7.262;2023-04-19T01:07:20;4.87;;;3.87;;
26484;SDS011;18083;50.560;7.262;2023-04-19T01:09:48;6.03;;;4.00;;
26484;SDS011;18083;50.560;7.262;2023-04-19T01:12:15;5.20;;;3.92;;
26484;SDS011;18083;50.560;7.262;2023-04-19T01:14:43;4.72;;;3.52;;
26484;SDS011;18083;50.560;7.262;2023-04-19T01:17:10;5.33;;;4.20;;
26484;SDS011;18083;50.560;7.262;2023-04-19T01:19:38;4.33;;;3.42;;
26484;SDS011;18083;50.560;7.262;2023-04-19T01:22:06;5.60;;;3.37;;
26484;SDS011;18083;50.560;7.262;2023-04-19T01:24:33;5.30;;;4.55;;
26484;SDS011;18083;50.560;7.262;2023-04-19T01:27:00;5.10;;;4.60;;
26484;SDS011;18083;50.560;7.262;2023-04-19T01:29:28;5.05;;;4.03;;
26484;SDS011;18083;50.560;7.262;2023-04-19T01:31:56;6.12;;;4.05;;
26484;SDS011;18083;50.560;7.262;2023-04-19T01:34:23;6.25;;;4.28;;
26484;SDS011;18083;50.560;7.262;2023-04-19T01:36:50;7.83;;;4.53;;
26484;SDS011;18083;50.560;7.262;2023-04-19T01:39:17;5.03;;;4.05;;
26484;SDS011;18083;50.560;7.262;2023-04-19T01:41:45;6.22;;;4.22;;
26484;SDS011;18083;50.560;7.262;2023-04-19T01:44:12;9.50;;;5.47;;
26484;SDS011;18083;50.560;7.262;2023-04-19T01:46:39;8.63;;;4.92;;
26484;SDS011;18083;50.560;7.262;2023-04-19T01:49:07;7.63;;;4.83;;
26484;SDS011;18083;50.560;7.262;2023-04-19T01:51:36;7.45;;;4.75;;
26484;SDS011;18083;50.560;7.262;2023-04-19T01:54:03;6.85;;;4.85;;
26484;SDS011;18083;50.560;7.262;2023-04-19T01:56:30;6.17;;;4.53;;
26484;SDS011;18083;50.560;7.262;2023-04-19T01:58:58;6.45;;;4.80;;
26484;SDS011;18083;50.560;7.262;2023-04-19T02:01:25;6.47;;;4.50;;
26484;SDS011;18083;50.560;7.262;2023-04-19T02:03:52;13.13;;;6.40;;
26484;SDS011;18083;50.560;7.262;2023-04-19T02:06:20;6.15;;;5.40;;
26484;SDS011;18083;50.560;7.262;2023-04-19T02:08:47;7.47;;;5.53;;
26484;SDS011;18083;50.560;7.262;2023-04-19T02:11:14;7.80;;;5.58;;
26484;SDS011;18083;50.560;7.262;2023-04-19T02:13:41;6.73;;;5.17;;
26484;SDS011;18083;50.560;7.262;2023-04-19T02:16:09;8.57;;;5.77;;
26484;SDS011;18083;50.560;7.262;2023-04-19T02:18:36;7.93;;;5.63;;
26484;SDS011;18083;50.560;7.262;2023-04-19T02:21:04;8.77;;;6.13;;
26484;SDS011;18083;50.560;7.262;2023-04-19T02:23:32;9.57;;;6.83;;
26484;SDS011;18083;50.560;7.262;2023-04-19T02:26:00;11.27;;;7.33;;
26484;SDS011;18083;50.560;7.262;2023-04-19T02:28:30;8.70;;;6.60;;
26484;SDS011;18083;50.560;7.262;2023-04-19T02:30:58;10.78;;;6.35;;
26484;SDS011;18083;50.560;7.262;2023-04-19T02:33:25;9.53;;;7.07;;
26484;SDS011;18083;50.560;7.262;2023-04-19T02:35:54;12.83;;;7.60;;
26484;SDS011;18083;50.560;7.262;2023-04-19T02:38:21;10.50;;;6.73;;
26484;SDS011;18083;50.560;7.262;2023-04-19T02:40:48;12.53;;;7.33;;
26484;SDS011;18083;50.560;7.262;2023-04-19T02:43:15;11.50;;;8.63;;
26484;SDS011;18083;50.560;7.262;2023-04-19T02:45:43;13.23;;;8.20;;
26484;SDS011;18083;50.560;7.262;2023-04-19T02:48:10;11.40;;;7.37;;
26484;SDS011;18083;50.560;7.262;2023-04-19T02:50:37;9.93;;;7.53;;
26484;SDS011;18083;50.560;7.262;2023-04-19T02:53:04;11.50;;;7.10;;
26484;SDS011;18083;50.560;7.262;2023-04-19T02:55:32;11.97;;;8.20;;
26484;SDS011;18083;50.560;7.262;2023-04-19T02:57:59;9.77;;;7.77;;
26484;SDS011;18083;50.560;7.262;2023-04-19T03:00:26;9.53;;;6.47;;
26484;SDS011;18083;50.560;7.262;2023-04-19T03:02:54;11.83;;;7.50;;
26484;SDS011;18083;50.560;7.262;2023-04-19T03:05:22;12.50;;;7.37;;
26484;SDS011;18083;50.560;7.262;2023-04-19T03:07:49;13.27;;;7.80;;
26484;SDS011;18083;50.560;7.262;2023-04-19T03:10:16;9.60;;;7.53;;
26484;SDS011;18083;50.560;7.262;2023-04-19T03:12:43;10.57;;;7.37;;
26484;SDS011;18083;50.560;7.262;2023-04-19T03:15:11;10.80;;;7.87;;
26484;SDS011;18083;50.560;7.262;2023-04-19T03:17:38;11.43;;;8.60;;
26484;SDS011;18083;50.560;7.262;2023-04-19T03:20:05;12.57;;;8.70;;
26484;SDS011;18083;50.560;7.262;2023-04-19T03:22:39;12.00;;;8.67;;
26484;SDS011;18083;50.560;7.262;2023-04-19T03:25:06;13.70;;;8.73;;
26484;SDS011;18083;50.560;7.262;2023-04-19T03:27:34;10.93;;;7.77;;
26484;SDS011;18083;50.560;7.262;2023-04-19T03:30:02;17.60;;;8.30;;
26484;SDS011;18083;50.560;7.262;2023-04-19T03:32:30;11.70;;;7.33;;
26484;SDS011;18083;50.560;7.262;2023-04-19T03:34:57;11.03;;;7.80;;
26484;SDS011;18083;50.560;7.262;2023-04-19T03:37:24;10.30;;;7.37;;
26484;SDS011;18083;50.560;7.262;2023-04-19T03:39:52;13.10;;;8.40;;
26484;SDS011;18083;50.560;7.262;2023-04-19T03:42:19;11.63;;;7.57;;
26484;SDS011;18083;50.560;7.262;2023-04-19T03:44:46;14.20;;;8.53;;
26484;SDS011;18083;50.560;7.262;2023-04-19T03:47:14;13.80;;;8.50;;
26484;SDS011;18083;50.560;7.262;2023-04-19T03:49:41;10.97;;;7.77;;
26484;SDS011;18083;50.560;7.262;2023-04-19T03:52:08;12.17;;;8.00;;
26484;SDS011;18083;50.560;7.262;2023-04-19T03:54:36;11.73;;;7.83;;
26484;SDS011;18083;50.560;7.262;2023-04-19T03:57:03;11.80;;;7.83;;
26484;SDS011;18083;50.560;7.262;2023-04-19T03:59:31;14.40;;;8.73;;
26484;SDS011;18083;50.560;7.262;2023-04-19T04:01:58;13.37;;;8.00;;
26484;SDS011;18083;50.560;7.262;2023-04-19T04:04:25;14.47;;;9.77;;
26484;SDS011;18083;50.560;7.262;2023-04-19T04:06:52;11.47;;;7.67;;
26484;SDS011;18083;50.560;7.262;2023-04-19T04:09:20;14.37;;;9.17;;
26484;SDS011;18083;50.560;7.262;2023-04-19T04:11:47;14.97;;;8.83;;
26484;SDS011;18083;50.560;7.262;2023-04-19T04:14:14;11.60;;;7.07;;
26484;SDS011;18083;50.560;7.262;2023-04-19T04:16:42;14.37;;;8.90;;
26484;SDS011;18083;50.560;7.262;2023-04-19T04:19:09;11.03;;;7.90;;
26484;SDS011;18083;50.560;7.262;2023-04-19T04:21:36;12.73;;;8.83;;
26484;SDS011;18083;50.560;7.262;2023-04-19T04:24:03;15.03;;;9.30;;
26484;SDS011;18083;50.560;7.262;2023-04-19T04:26:33;16.13;;;9.07;;
26484;SDS011;18083;50.560;7.262;2023-04-19T04:29:00;13.80;;;9.90;;
26484;SDS011;18083;50.560;7.262;2023-04-19T04:31:28;12.20;;;8.10;;
26484;SDS011;18083;50.560;7.262;2023-04-19T04:33:55;14.23;;;8.17;;
26484;SDS011;18083;50.560;7.262;2023-04-19T04:36:22;14.10;;;9.23;;
26484;SDS011;18083;50.560;7.262;2023-04-19T04:38:51;13.97;;;8.87;;
26484;SDS011;18083;50.560;7.262;2023-04-19T04:41:18;13.27;;;8.57;;
26484;SDS011;18083;50.560;7.262;2023-04-19T04:43:46;13.80;;;9.03;;
26484;SDS011;18083;50.560;7.262;2023-04-19T04:46:15;16.77;;;8.53;;
26484;SDS011;18083;50.560;7.262;2023-04-19T04:48:42;17.47;;;8.63;;
26484;SDS011;18083;50.560;7.262;2023-04-19T04:51:09;16.17;;;9.40;;
26484;SDS011;18083;50.560;7.262;2023-04-19T04:53:36;18.87;;;9.00;;
26484;SDS011;18083;50.560;7.262;2023-04-19T04:56:04;16.50;;;9.07;;
26484;SDS011;18083;50.560;7.262;2023-04-19T04:58:31;12.57;;;8.73;;
26484;SDS011;18083;50.560;7.262;2023-04-19T05:00:58;15.70;;;9.50;;
26484;SDS011;18083;50.560;7.262;2023-04-19T05:03:26;16.40;;;8.77;;
26484;SDS011;18083;50.560;7.262;2023-04-19T05:05:53;12.60;;;9.03;;
26484;SDS011;18083;50.560;7.262;2023-04-19T05:08:20;13.93;;;8.87;;
26484;SDS011;18083;50.560;7.262;2023-04-19T05:10:47;17.30;;;9.43;;
26484;SDS011;18083;50.560;7.262;2023-04-19T05:13:15;13.60;;;9.40;;
26484;SDS011;18083;50.560;7.262;2023-04-19T05:15:42;17.53;;;9.90;;
26484;SDS011;18083;50.560;7.262;2023-04-19T05:18:09;14.97;;;10.40;;
26484;SDS011;18083;50.560;7.262;2023-04-19T05:20:37;16.20;;;10.13;;
26484;SDS011;18083;50.560;7.262;2023-04-19T05:23:04;18.27;;;11.23;;
26484;SDS011;18083;50.560;7.262;2023-04-19T05:25:31;18.33;;;10.00;;
26484;SDS011;18083;50.560;7.262;2023-04-19T05:27:59;14.80;;;8.70;;
26484;SDS011;18083;50.560;7.262;2023-04-19T05:30:26;15.60;;;9.33;;
26484;SDS011;18083;50.560;7.262;2023-04-19T05:32:53;14.43;;;9.37;;
26484;SDS011;18083;50.560;7.262;2023-04-19T05:35:21;17.93;;;10.13;;
26484;SDS011;18083;50.560;7.262;2023-04-19T05:37:48;16.73;;;10.03;;
26484;SDS011;18083;50.560;7.262;2023-04-19T05:40:16;21.07;;;10.77;;
26484;SDS011;18083;50.560;7.262;2023-04-19T05:42:44;18.93;;;11.93;;
26484;SDS011;18083;50.560;7.262;2023-04-19T05:45:11;17.30;;;11.77;;
26484;SDS011;18083;50.560;7.262;2023-04-19T05:47:40;17.87;;;11.37;;
26484;SDS011;18083;50.560;7.262;2023-04-19T05:50:08;17.03;;;9.80;;
26484;SDS011;18083;50.560;7.262;2023-04-19T05:52:35;16.40;;;9.97;;
26484;SDS011;18083;50.560;7.262;2023-04-19T05:55:03;20.33;;;11.70;;
26484;SDS011;18083;50.560;7.262;2023-04-19T05:57:31;17.40;;;11.23;;
26484;SDS011;18083;50.560;7.262;2023-04-19T05:59:58;20.10;;;10.23;;
26484;SDS011;18083;50.560;7.262;2023-04-19T06:02:26;15.67;;;10.37;;
26484;SDS011;18083;50.560;7.262;2023-04-19T06:04:53;18.17;;;10.27;;
26484;SDS011;18083;50.560;7.262;2023-04-19T06:07:21;14.77;;;10.23;;
26484;SDS011;18083;50.560;7.262;2023-04-19T06:09:48;17.03;;;10.23;;
26484;SDS011;18083;50.560;7.262;2023-04-19T06:12:15;12.97;;;10.77;;
26484;SDS011;18083;50.560;7.262;2023-04-19T06:14:43;16.57;;;10.03;;
26484;SDS011;18083;50.560;7.262;2023-04-19T06:17:10;15.80;;;9.60;;
26484;SDS011;18083;50.560;7.262;2023-04-19T06:19:38;20.47;;;11.10;;
26484;SDS011;18083;50.560;7.262;2023-04-19T06:22:05;15.70;;;11.03;;
26484;SDS011;18083;50.560;7.262;2023-04-19T06:24:32;13.27;;;10.10;;
26484;SDS011;18083;50.560;7.262;2023-04-19T06:27:00;14.73;;;10.07;;
26484;SDS011;18083;50.560;7.262;2023-04-19T06:29:27;16.25;;;9.80;;
26484;SDS011;18083;50.560;7.262;2023-04-19T06:31:54;17.73;;;10.17;;
26484;SDS011;18083;50.560;7.262;2023-04-19T06:34:22;15.07;;;9.30;;
26484;SDS011;18083;50.560;7.262;2023-04-19T06:36:49;21.83;;;12.27;;
26484;SDS011;18083;50.560;7.262;2023-04-19T06:39:16;18.23;;;10.17;;
26484;SDS011;18083;50.560;7.262;2023-04-19T06:41:43;14.40;;;11.43;;
26484;SDS011;18083;50.560;7.262;2023-04-19T06:44:11;11.30;;;9.30;;
26484;SDS011;18083;50.560;7.262;2023-04-19T06:46:38;17.00;;;10.53;;
26484;SDS011;18083;50.560;7.262;2023-04-19T06:49:06;17.37;;;10.17;;
26484;SDS011;18083;50.560;7.262;2023-04-19T06:51:33;14.57;;;9.60;;
26484;SDS011;18083;50.560;7.262;2023-04-19T06:54:00;21.67;;;11.80;;
26484;SDS011;18083;50.560;7.262;2023-04-19T06:56:43;24.17;;;10.87;;
26484;SDS011;18083;50.560;7.262;2023-04-19T06:59:11;31.83;;;10.63;;
26484;SDS011;18083;50.560;7.262;2023-04-19T07:01:38;19.93;;;10.67;;
26484;SDS011;18083;50.560;7.262;2023-04-19T07:04:06;30.13;;;11.20;;
26484;SDS011;18083;50.560;7.262;2023-04-19T07:06:34;20.27;;;10.77;;
26484;SDS011;18083;50.560;7.262;2023-04-19T07:09:01;12.98;;;9.13;;
26484;SDS011;18083;50.560;7.262;2023-04-19T07:11:29;16.85;;;10.78;;
26484;SDS011;18083;50.560;7.262;2023-04-19T07:13:57;14.58;;;10.13;;
26484;SDS011;18083;50.560;7.262;2023-04-19T07:16:26;21.05;;;11.25;;
26484;SDS011;18083;50.560;7.262;2023-04-19T07:18:53;17.37;;;10.10;;
26484;SDS011;18083;50.560;7.262;2023-04-19T07:21:21;15.60;;;10.80;;
26484;SDS011;18083;50.560;7.262;2023-04-19T07:23:50;11.08;;;8.90;;
26484;SDS011;18083;50.560;7.262;2023-04-19T07:26:17;19.20;;;10.90;;
26484;SDS011;18083;50.560;7.262;2023-04-19T07:28:44;21.55;;;9.88;;
26484;SDS011;18083;50.560;7.262;2023-04-19T07:31:14;16.00;;;9.60;;
26484;SDS011;18083;50.560;7.262;2023-04-19T07:33:42;13.62;;;9.35;;
26484;SDS011;18083;50.560;7.262;2023-04-19T07:36:09;16.40;;;9.00;;
26484;SDS011;18083;50.560;7.262;2023-04-19T07:38:37;12.55;;;8.43;;
26484;SDS011;18083;50.560;7.262;2023-04-19T07:41:04;16.93;;;9.38;;
26484;SDS011;18083;50.560;7.262;2023-04-19T07:43:32;11.18;;;8.53;;
26484;SDS011;18083;50.560;7.262;2023-04-19T07:45:59;14.75;;;8.15;;
26484;SDS011;18083;50.560;7.262;2023-04-19T07:48:26;14.43;;;8.80;;
26484;SDS011;18083;50.560;7.262;2023-04-19T07:50:53;10.72;;;8.05;;
26484;SDS011;18083;50.560;7.262;2023-04-19T07:53:21;11.90;;;8.60;;
26484;SDS011;18083;50.560;7.262;2023-04-19T07:55:48;15.63;;;8.35;;
26484;SDS011;18083;50.560;7.262;2023-04-19T07:58:15;11.55;;;8.23;;
26484;SDS011;18083;50.560;7.262;2023-04-19T08:00:43;9.25;;;7.03;;
26484;SDS011;18083;50.560;7.262;2023-04-19T08:03:10;14.35;;;7.83;;
26484;SDS011;18083;50.560;7.262;2023-04-19T08:05:37;7.42;;;6.25;;
26484;SDS011;18083;50.560;7.262;2023-04-19T08:08:04;10.85;;;7.28;;
26484;SDS011;18083;50.560;7.262;2023-04-19T08:10:32;13.58;;;7.25;;
26484;SDS011;18083;50.560;7.262;2023-04-19T08:13:00;7.92;;;6.30;;
26484;SDS011;18083;50.560;7.262;2023-04-19T08:15:27;11.05;;;6.70;;
26484;SDS011;18083;50.560;7.262;2023-04-19T08:17:54;7.65;;;5.75;;
26484;SDS011;18083;50.560;7.262;2023-04-19T08:20:21;10.05;;;6.55;;
26484;SDS011;18083;50.560;7.262;2023-04-19T08:22:49;10.23;;;7.53;;
26484;SDS011;18083;50.560;7.262;2023-04-19T08:25:16;8.88;;;6.20;;
26484;SDS011;18083;50.560;7.262;2023-04-19T08:27:44;10.13;;;6.28;;
26484;SDS011;18083;50.560;7.262;2023-04-19T08:30:11;10.03;;;6.40;;
26484;SDS011;18083;50.560;7.262;2023-04-19T08:32:38;8.00;;;5.15;;
26484;SDS011;18083;50.560;7.262;2023-04-19T08:35:06;7.17;;;6.22;;
26484;SDS011;18083;50.560;7.262;2023-04-19T08:37:33;7.45;;;5.37;;
26484;SDS011;18083;50.560;7.262;2023-04-19T08:40:01;9.95;;;6.47;;
26484;SDS011;18083;50.560;7.262;2023-04-19T08:42:29;9.20;;;7.40;;
26484;SDS011;18083;50.560;7.262;2023-04-19T08:45:02;7.05;;;5.53;;
26484;SDS011;18083;50.560;7.262;2023-04-19T08:47:28;7.65;;;6.40;;
26484;SDS011;18083;50.560;7.262;2023-04-19T08:49:57;11.57;;;7.03;;
26484;SDS011;18083;50.560;7.262;2023-04-19T08:52:25;6.85;;;6.15;;
26484;SDS011;18083;50.560;7.262;2023-04-19T08:54:53;9.08;;;6.17;;
26484;SDS011;18083;50.560;7.262;2023-04-19T08:57:21;11.53;;;7.00;;
26484;SDS011;18083;50.560;7.262;2023-04-19T08:59:48;8.45;;;6.08;;
26484;SDS011;18083;50.560;7.262;2023-04-19T09:02:17;10.55;;;6.37;;
26484;SDS011;18083;50.560;7.262;2023-04-19T09:04:44;6.75;;;5.53;;
26484;SDS011;18083;50.560;7.262;2023-04-19T09:07:24;7.58;;;5.47;;
26484;SDS011;18083;50.560;7.262;2023-04-19T09:10:04;10.48;;;6.20;;
26484;SDS011;18083;50.560;7.262;2023-04-19T09:12:33;7.33;;;6.17;;
26484;SDS011;18083;50.560;7.262;2023-04-19T09:15:01;7.42;;;5.45;;
26484;SDS011;18083;50.560;7.262;2023-04-19T09:17:29;8.18;;;6.20;;
26484;SDS011;18083;50.560;7.262;2023-04-19T09:19:57;9.03;;;6.42;;
26484;SDS011;18083;50.560;7.262;2023-04-19T09:22:25;9.78;;;6.42;;
26484;SDS011;18083;50.560;7.262;2023-04-19T09:24:52;8.30;;;6.58;;
26484;SDS011;18083;50.560;7.262;2023-04-19T09:27:29;6.67;;;5.95;;
26484;SDS011;18083;50.560;7.262;2023-04-19T09:30:02;9.73;;;6.33;;
26484;SDS011;18083;50.560;7.262;2023-04-19T09:32:25;10.53;;;7.50;;
26484;SDS011;18083;50.560;7.262;2023-04-19T09:34:54;7.05;;;5.72;;
26484;SDS011;18083;50.560;7.262;2023-04-19T09:37:21;7.33;;;5.20;;
26484;SDS011;18083;50.560;7.262;2023-04-19T09:39:49;6.40;;;5.67;;
26484;SDS011;18083;50.560;7.262;2023-04-19T09:42:16;8.68;;;6.40;;
26484;SDS011;18083;50.560;7.262;2023-04-19T09:44:57;9.10;;;6.05;;
26484;SDS011;18083;50.560;7.262;2023-04-19T09:47:26;8.23;;;6.55;;
26484;SDS011;18083;50.560;7.262;2023-04-19T09:50:13;6.28;;;5.10;;
26484;SDS011;18083;50.560;7.262;2023-04-19T09:52:26;6.50;;;5.42;;
26484;SDS011;18083;50.560;7.262;2023-04-19T09:54:54;7.92;;;5.00;;
26484;SDS011;18083;50.560;7.262;2023-04-19T09:57:21;5.85;;;4.83;;
26484;SDS011;18083;50.560;7.262;2023-04-19T09:59:48;9.60;;;4.78;;
26484;SDS011;18083;50.560;7.262;2023-04-19T10:02:16;8.60;;;4.83;;
26484;SDS011;18083;50.560;7.262;2023-04-19T10:04:43;6.35;;;4.85;;
26484;SDS011;18083;50.560;7.262;2023-04-19T10:07:11;7.72;;;5.33;;
26484;SDS011;18083;50.560;7.262;2023-04-19T10:09:38;7.87;;;5.17;;
26484;SDS011;18083;50.560;7.262;2023-04-19T10:12:06;10.03;;;5.42;;
26484;SDS011;18083;50.560;7.262;2023-04-19T10:14:34;6.10;;;5.50;;
26484;SDS011;18083;50.560;7.262;2023-04-19T10:17:01;6.05;;;5.10;;
26484;SDS011;18083;50.560;7.262;2023-04-19T10:19:29;5.25;;;4.35;;
26484;SDS011;18083;50.560;7.262;2023-04-19T10:21:57;5.92;;;4.70;;
26484;SDS011;18083;50.560;7.262;2023-04-19T10:24:25;6.60;;;4.03;;
26484;SDS011;18083;50.560;7.262;2023-04-19T10:27:09;5.20;;;4.70;;
26484;SDS011;18083;50.560;7.262;2023-04-19T10:32:21;7.70;;;4.90;;
26484;SDS011;18083;50.560;7.262;2023-04-19T10:34:52;7.75;;;4.58;;
26484;SDS011;18083;50.560;7.262;2023-04-19T10:37:24;7.28;;;3.65;;
26484;SDS011;18083;50.560;7.262;2023-04-19T10:39:51;4.05;;;3.17;;
26484;SDS011;18083;50.560;7.262;2023-04-19T10:42:19;3.60;;;3.10;;
26484;SDS011;18083;50.560;7.262;2023-04-19T10:47:40;3.90;;;3.30;;
26484;SDS011;18083;50.560;7.262;2023-04-19T10:50:08;3.17;;;2.87;;
26484;SDS011;18083;50.560;7.262;2023-04-19T10:52:35;3.35;;;2.50;;
26484;SDS011;18083;50.560;7.262;2023-04-19T10:55:03;5.58;;;3.00;;
26484;SDS011;18083;50.560;7.262;2023-04-19T10:57:59;3.00;;;2.60;;
26484;SDS011;18083;50.560;7.262;2023-04-19T11:00:22;4.67;;;2.58;;
26484;SDS011;18083;50.560;7.262;2023-04-19T11:02:46;2.30;;;2.10;;
26484;SDS011;18083;50.560;7.262;2023-04-19T11:05:14;2.98;;;2.67;;
26484;SDS011;18083;50.560;7.262;2023-04-19T11:07:41;4.80;;;3.25;;
26484;SDS011;18083;50.560;7.262;2023-04-19T11:10:09;3.27;;;2.77;;
26484;SDS011;18083;50.560;7.262;2023-04-19T11:12:36;4.12;;;2.87;;
26484;SDS011;18083;50.560;7.262;2023-04-19T11:15:04;3.08;;;2.72;;
26484;SDS011;18083;50.560;7.262;2023-04-19T11:17:31;2.95;;;2.33;;
26484;SDS011;18083;50.560;7.262;2023-04-19T11:19:59;3.40;;;2.27;;
26484;SDS011;18083;50.560;7.262;2023-04-19T11:22:30;3.15;;;2.55;;
26484;SDS011;18083;50.560;7.262;2023-04-19T11:25:09;2.60;;;2.35;;
26484;SDS011;18083;50.560;7.262;2023-04-19T11:27:37;2.42;;;2.22;;
26484;SDS011;18083;50.560;7.262;2023-04-19T11:30:10;3.75;;;3.30;;
26484;SDS011;18083;50.560;7.262;2023-04-19T11:32:34;3.15;;;2.75;;
26484;SDS011;18083;50.560;7.262;2023-04-19T11:35:05;4.80;;;2.55;;
26484;SDS011;18083;50.560;7.262;2023-04-19T11:37:33;4.15;;;2.70;;
26484;SDS011;18083;50.560;7.262;2023-04-19T11:40:01;3.47;;;2.47;;
26484;SDS011;18083;50.560;7.262;2023-04-19T11:42:28;3.42;;;2.20;;
26484;SDS011;18083;50.560;7.262;2023-04-19T11:44:56;3.92;;;2.60;;
26484;SDS011;18083;50.560;7.262;2023-04-19T11:47:25;3.08;;;2.47;;
26484;SDS011;18083;50.560;7.262;2023-04-19T11:50:09;3.35;;;3.00;;
26484;SDS011;18083;50.560;7.262;2023-04-19T11:52:24;3.85;;;2.70;;
26484;SDS011;18083;50.560;7.262;2023-04-19T11:54:52;3.50;;;3.05;;
26484;SDS011;18083;50.560;7.262;2023-04-19T11:57:30;3.10;;;1.90;;
26484;SDS011;18083;50.560;7.262;2023-04-19T12:09:12;6.08;;;1.98;;
26484;SDS011;18083;50.560;7.262;2023-04-19T12:22:47;9.75;;;1.98;;
26484;SDS011;18083;50.560;7.262;2023-04-19T12:28:29;2.77;;;1.82;;
26484;SDS011;18083;50.560;7.262;2023-04-19T12:31:03;2.20;;;1.60;;
26484;SDS011;18083;50.560;7.262;2023-04-19T12:36:47;3.00;;;1.70;;
26484;SDS011;18083;50.560;7.262;2023-04-19T12:39:15;2.00;;;1.70;;
26484;SDS011;18083;50.560;7.262;2023-04-19T12:54:08;1.95;;;1.85;;
26484;SDS011;18083;50.560;7.262;2023-04-19T13:02:45;2.30;;;1.75;;
26484;SDS011;18083;50.560;7.262;2023-04-19T13:16:57;2.27;;;1.85;;
26484;SDS011;18083;50.560;7.262;2023-04-19T13:19:47;6.78;;;1.82;;
26484;SDS011;18083;50.560;7.262;2023-04-19T13:22:38;2.02;;;1.80;;
26484;SDS011;18083;50.560;7.262;2023-04-19T13:25:06;1.80;;;1.60;;
26484;SDS011;18083;50.560;7.262;2023-04-19T13:27:33;1.45;;;1.35;;
26484;SDS011;18083;50.560;7.262;2023-04-19T13:33:18;2.25;;;1.62;;
26484;SDS011;18083;50.560;7.262;2023-04-19T13:47:58;1.62;;;1.47;;
26484;SDS011;18083;50.560;7.262;2023-04-19T13:53:45;2.80;;;1.60;;
26484;SDS011;18083;50.560;7.262;2023-04-19T14:14:27;1.50;;;1.40;;
26484;SDS011;18083;50.560;7.262;2023-04-19T14:33:22;2.20;;;1.65;;
26484;SDS011;18083;50.560;7.262;2023-04-19T14:38:48;3.40;;;1.47;;
26484;SDS011;18083;50.560;7.262;2023-04-19T14:41:29;3.83;;;2.37;;
26484;SDS011;18083;50.560;7.262;2023-04-19T14:44:06;2.75;;;1.27;;
26484;SDS011;18083;50.560;7.262;2023-04-19T14:49:58;2.87;;;1.30;;
26484;SDS011;18083;50.560;7.262;2023-04-19T14:52:25;2.35;;;1.82;;
26484;SDS011;18083;50.560;7.262;2023-04-19T14:54:56;2.35;;;1.25;;
26484;SDS011;18083;50.560;7.262;2023-04-19T14:57:28;2.90;;;1.77;;
26484;SDS011;18083;50.560;7.262;2023-04-19T15:05:48;4.03;;;1.60;;
26484;SDS011;18083;50.560;7.262;2023-04-19T15:08:16;1.82;;;1.72;;
26484;SDS011;18083;50.560;7.262;2023-04-19T15:13:30;3.08;;;2.40;;
26484;SDS011;18083;50.560;7.262;2023-04-19T15:15:59;2.60;;;1.70;;
26484;SDS011;18083;50.560;7.262;2023-04-19T15:18:27;4.92;;;2.37;;
26484;SDS011;18083;50.560;7.262;2023-04-19T15:20:54;2.40;;;1.52;;
26484;SDS011;18083;50.560;7.262;2023-04-19T15:23:22;2.25;;;2.05;;
26484;SDS011;18083;50.560;7.262;2023-04-19T15:28:53;4.85;;;2.27;;
26484;SDS011;18083;50.560;7.262;2023-04-19T15:34:08;2.27;;;2.05;;
26484;SDS011;18083;50.560;7.262;2023-04-19T15:36:35;3.37;;;2.25;;
26484;SDS011;18083;50.560;7.262;2023-04-19T15:39:03;3.27;;;2.65;;
26484;SDS011;18083;50.560;7.262;2023-04-19T15:47:20;2.87;;;1.90;;
26484;SDS011;18083;50.560;7.262;2023-04-19T15:49:47;2.77;;;2.58;;
26484;SDS011;18083;50.560;7.262;2023-04-19T15:52:17;2.87;;;1.80;;
26484;SDS011;18083;50.560;7.262;2023-04-19T15:54:44;3.83;;;2.65;;
26484;SDS011;18083;50.560;7.262;2023-04-19T15:57:12;3.72;;;2.80;;
26484;SDS011;18083;50.560;7.262;2023-04-19T15:59:39;2.98;;;2.55;;
26484;SDS011;18083;50.560;7.262;2023-04-19T16:02:06;4.35;;;3.05;;
26484;SDS011;18083;50.560;7.262;2023-04-19T16:04:33;2.67;;;2.47;;
26484;SDS011;18083;50.560;7.262;2023-04-19T16:07:02;3.52;;;2.30;;
26484;SDS011;18083;50.560;7.262;2023-04-19T16:09:29;4.70;;;2.42;;
26484;SDS011;18083;50.560;7.262;2023-04-19T16:11:56;3.22;;;2.00;;
26484;SDS011;18083;50.560;7.262;2023-04-19T16:14:24;4.30;;;2.35;;
26484;SDS011;18083;50.560;7.262;2023-04-19T16:16:51;5.05;;;2.00;;
26484;SDS011;18083;50.560;7.262;2023-04-19T16:19:18;4.60;;;2.33;;
26484;SDS011;18083;50.560;7.262;2023-04-19T16:21:46;2.62;;;2.37;;
26484;SDS011;18083;50.560;7.262;2023-04-19T16:24:13;3.70;;;2.77;;
26484;SDS011;18083;50.560;7.262;2023-04-19T16:26:41;4.15;;;1.75;;
26484;SDS011;18083;50.560;7.262;2023-04-19T16:29:08;6.30;;;4.70;;
26484;SDS011;18083;50.560;7.262;2023-04-19T16:31:35;5.65;;;2.40;;
26484;SDS011;18083;50.560;7.262;2023-04-19T16:34:02;4.87;;;2.95;;
26484;SDS011;18083;50.560;7.262;2023-04-19T16:36:30;7.00;;;3.02;;
26484;SDS011;18083;50.560;7.262;2023-04-19T16:38:57;5.05;;;2.25;;
26484;SDS011;18083;50.560;7.262;2023-04-19T16:41:24;2.47;;;2.27;;
26484;SDS011;18083;50.560;7.262;2023-04-19T16:43:51;2.65;;;2.45;;
26484;SDS011;18083;50.560;7.262;2023-04-19T16:46:19;4.80;;;2.47;;
26484;SDS011;18083;50.560;7.262;2023-04-19T16:48:46;3.17;;;2.50;;
26484;SDS011;18083;50.560;7.262;2023-04-19T16:51:15;4.30;;;2.47;;
26484;SDS011;18083;50.560;7.262;2023-04-19T16:53:42;4.33;;;2.72;;
26484;SDS011;18083;50.560;7.262;2023-04-19T16:56:10;4.75;;;2.75;;
26484;SDS011;18083;50.560;7.262;2023-04-19T16:58:38;4.90;;;2.17;;
26484;SDS011;18083;50.560;7.262;2023-04-19T17:01:05;2.72;;;2.35;;
26484;SDS011;18083;50.560;7.262;2023-04-19T17:03:34;2.05;;;1.82;;
26484;SDS011;18083;50.560;7.262;2023-04-19T17:06:01;3.27;;;2.20;;
26484;SDS011;18083;50.560;7.262;2023-04-19T17:08:28;6.12;;;3.40;;